METAR Data
IDs: Format: Raw Decoded Include TAF

Data at: 1348 UTC 14 Dec 2019

PAKP 141256Z AUTO 18009KT 10SM CLR M12/M16 A2965 RMK AO2 SLP102 T11221156 FZRANO
PAKP 141156Z AUTO 19012KT 10SM CLR M12/M16 A2965 RMK AO2 SLP101 T11171156 11094 21117 51009 FZRANO
PAKP 141056Z AUTO 18013KT 10SM CLR M11/M15 A2965 RMK AO2 SLP099 T11111150 FZRANO
PAKP 140956Z AUTO 19014KT 10SM CLR M10/M14 A2963 RMK AO2 SLP092 T11001144 FZRANO
PAKP 140856Z AUTO 17015KT 10SM CLR M11/M15 A2962 RMK AO2 SLP094 T11061150 410831211 53006 FZRANO
PAKP 140756Z AUTO 19019KT 10SM CLR M10/M14 A2960 RMK AO2 SLP087 T11001144 FZRANO
PAKP 140656Z AUTO 19015KT 10SM CLR M11/M15 A2960 RMK AO2 SLP087 T11061150 FZRANO
PAKP 140556Z AUTO 19009KT 10SM CLR M10/M15 A2960 RMK AO2 SLP089 T11001150 11083 21117 50003 FZRANO
PAKP 140456Z AUTO 18004KT 10SM SCT030 M11/M15 A2961 RMK AO2 SLP092 T11061150 FZRANO
PAKP 140356Z AUTO 19007KT 10SM CLR M12/M16 A2960 RMK AO2 SLP092 T11171161 FZRANO
PAKP 140256Z AUTO 17008KT 10SM BKN038 M11/M17 A2959 RMK AO2 SLP088 T11111167 53018 FZRANO
PAKP 140156Z AUTO 24011KT 10SM CLR M09/M15 A2956 RMK AO2 SLP078 T10941150 FZRANO
PAKP 140056Z AUTO 24017G22KT 10SM CLR M10/M16 A2956 RMK AO2 SLP077 T11001161 FZRANO
PAKP 132356Z AUTO 24014G21KT 10SM CLR M09/M16 A2954 RMK AO2 SLP071 T10941161 11089 21156 53013 FZRANO
PAKP 132156Z AUTO 24016G23KT 10SM CLR M09/M17 A2950 RMK AO2 SLP057 T10941167 FZRANO
PAKP 132056Z AUTO 17004KT 10SM CLR M14/M19 A2950 RMK AO2 SLP059 T11391194 51014 FZRANO
PAKP 131956Z AUTO 18010KT 10SM CLR M14/M20 A2948 RMK AO2 SLP054 T11391200 FZRANO
PAKP 131856Z AUTO 16009KT 10SM CLR M14/M21 A2947 RMK AO2 SLP050 T11391206 FZRANO
PAKP 131756Z AUTO 20007KT 10SM CLR M16/M21 A2945 RMK AO2 SLP044 T11611206 11144 21211 53010 FZRANO
PAKP 131356Z AUTO 19010KT 10SM CLR M19/M21 A2940 RMK AO2 SLP028 T11891211 FZRANO
PAKP 131256Z AUTO 20006KT 10SM CLR M21/M23 A2939 RMK AO2 SLP027 T12061233 FZRANO
PAKP 131156Z AUTO 18003KT 10SM CLR M21/M23 A2940 RMK AO2 SLP031 T12111233 11161 21211 56013 FZRANO
PAKP 131056Z AUTO 19008KT 10SM CLR M21/M23 A2941 RMK AO2 SLP030 T12061228 FZRANO
PAKP 130956Z AUTO 22004KT 10SM CLR M19/M22 A2942 RMK AO2 SLP032 T11941222 FZRANO
PAKP 130856Z AUTO 20005KT 10SM CLR M18/M21 A2945 RMK AO2 SLP037 T11831211 411001189 56015 FZRANO
PAKP 130756Z AUTO 26003KT 10SM CLR M18/M21 A2946 RMK AO2 SLP041 T11831206 FZRANO
PAKP 130656Z AUTO 21004KT 10SM CLR M18/M20 A2947 RMK AO2 SLP050 T11781200 FZRANO
PAKP 130556Z AUTO 18004KT 10SM CLR M16/M18 A2949 RMK AO2 SLP055 T11611183 11144 21172 58004 FZRANO
PAKP 130456Z AUTO VRB03KT 10SM CLR M17/M19 A2950 RMK AO2 SLP058 T11671189 FZRANO
PAKP 130356Z AUTO 20005KT 10SM CLR M15/M18 A2950 RMK AO2 SLP059 T11501178 FZRANO
PAKP 130256Z AUTO 00000KT 10SM CLR M15/M17 A2951 RMK AO2 SLP059 T11501172 55010 FZRANO
PAKP 130156Z AUTO 18007KT 10SM CLR M15/M17 A2950 RMK AO2 SLP058 T11501172 FZRANO